Time;durP1;ratioP1;P1;durP2;ratioP2;P2;SDS_P1;SDS_P2;PMS_P1;PMS_P2;Temp;Humidity;BMP_temperature;BMP_pressure;BME280_temperature;BME280_humidity;BME280_pressure;Samples;Min_cycle;Max_cycle;Signal;HPM_P1;HPM_P2
2022/10/14 00:01:06;;;;;;;;;;;;;;;9.06;88.82;100417.41;1714549;83;21127;-80
2022/10/14 00:03:34;;;;;;;;;;;;;;;9.07;88.79;100421.79;1713938;83;20141;-81
2022/10/14 00:06:05;;;;;;;;;;;;;;;9.06;88.73;100414.79;1714665;83;20171;-82
2022/10/14 00:08:33;;;;;;;;;;;;;;;9.05;88.66;100411.76;1714351;83;20548;-82
2022/10/14 00:11:08;;;;;;;;;;;;;;;9.04;88.69;100412.64;1714451;83;20216;-82
2022/10/14 00:13:34;;;;;;;;;;;;;;;9.01;88.76;100416.19;1714731;83;21126;-81
2022/10/14 00:16:01;;;;;;;;;;;;;;;9.00;88.92;100416.20;1714285;83;20188;-81
2022/10/14 00:18:27;;;;;;;;;;;;;;;8.99;88.88;100413.14;1714460;83;20346;-81
2022/10/14 00:20:56;;;;;;;;;;;;;;;9.00;88.92;100413.13;1714354;83;20141;-81
2022/10/14 00:23:22;;;;;;;;;;;;;;;9.00;88.95;100413.13;1714205;83;20203;-81
2022/10/14 00:25:48;;;;;;;;;;;;;;;9.02;89.10;100413.11;1714355;83;21120;-81
2022/10/14 00:28:16;;;;;;;;;;;;;;;9.02;89.24;100412.66;1714698;83;20735;-82
2022/10/14 00:30:57;;;;;;;;;;;;;;;9.03;89.16;100407.84;1714324;83;20233;-81
2022/10/14 00:33:24;;;;;;;;;;;;;;;9.06;89.11;100406.49;1714496;83;20180;-82
2022/10/14 00:35:56;;;;;;;;;;;;;;;9.11;89.11;100407.72;1714189;83;20271;-82
2022/10/14 00:38:25;;;;;;;;;;;;;;;9.09;89.10;100401.20;1714453;83;21131;-82
2022/10/14 00:40:51;;;;;;;;;;;;;;;9.11;89.01;100401.15;1714132;83;20219;-82
2022/10/14 00:43:18;;;;;;;;;;;;;;;9.12;88.88;100398.96;1714501;83;20486;-82
2022/10/14 00:45:46;;;;;;;;;;;;;;;9.13;88.99;100396.77;1714468;83;20208;-81
2022/10/14 00:48:13;;;;;;;;;;;;;;;9.14;89.05;100394.55;1714367;83;20165;-82
2022/10/14 00:50:41;;;;;;;;;;;;;;;9.14;89.12;100397.63;1714139;83;21791;-82
2022/10/14 00:53:08;;;;;;;;;;;;;;;9.14;89.17;100393.23;1714174;83;20196;-82
2022/10/14 00:55:35;;;;;;;;;;;;;;;9.12;89.06;100395.02;1714334;83;20142;-81
2022/10/14 00:58:05;;;;;;;;;;;;;;;9.13;89.07;100396.77;1665288;83;20221;-82
2022/10/14 01:00:31;;;;;;;;;;;;;;;9.11;89.12;100390.65;1714747;83;20181;-82
2022/10/14 01:02:59;;;;;;;;;;;;;;;9.10;89.22;100390.25;1714394;83;20161;-82
2022/10/14 01:05:29;;;;;;;;;;;;;;;9.08;89.29;100382.39;1714682;83;20536;-82
2022/10/14 01:08:08;;;;;;;;;;;;;;;9.05;89.21;100378.48;1714077;83;20522;-82
2022/10/14 01:10:43;;;;;;;;;;;;;;;9.06;89.25;100383.28;1714452;83;20253;-81
2022/10/14 01:13:25;;;;;;;;;;;;;;;9.05;89.26;100381.57;1714503;83;20223;-81
2022/10/14 01:15:59;;;;;;;;;;;;;;;9.03;89.19;100385.98;1714454;83;20499;-80
2022/10/14 01:18:44;;;;;;;;;;;;;;;9.00;89.10;100383.39;1714134;83;20169;-81
2022/10/14 01:21:17;;;;;;;;;;;;;;;8.97;89.08;100375.11;1714405;83;20207;-81
2022/10/14 01:24:10;;;;;;;;;;;;;;;8.95;89.02;100382.59;1714057;83;20228;-82
2022/10/14 01:26:57;;;;;;;;;;;;;;;8.90;88.94;100378.26;1714361;83;20176;-81
2022/10/14 01:29:50;;;;;;;;;;;;;;;8.87;88.64;100374.36;1714290;83;21151;-81
2022/10/14 01:32:26;;;;;;;;;;;;;;;8.83;88.51;100376.62;1714214;83;20173;-80
2022/10/14 01:35:05;;;;;;;;;;;;;;;8.80;88.43;100375.80;1714192;83;20219;-81
2022/10/14 01:37:31;;;;;;;;;;;;;;;8.74;88.26;100378.93;1714380;83;20193;-81
2022/10/14 01:40:00;;;;;;;;;;;;;;;8.71;88.16;100376.80;1714265;83;20215;-81
2022/10/14 01:42:31;;;;;;;;;;;;;;;8.66;88.10;100375.53;1714100;83;21170;-80
2022/10/14 01:45:07;;;;;;;;;;;;;;;8.64;88.01;100379.94;1713981;83;20216;-79
2022/10/14 01:47:36;;;;;;;;;;;;;;;8.60;87.98;100376.05;1714225;83;20129;-81
2022/10/14 01:50:11;;;;;;;;;;;;;;;8.54;87.71;100373.94;1714544;83;20188;-80
2022/10/14 01:52:40;;;;;;;;;;;;;;;8.52;87.92;100377.03;1714284;83;20209;-80
2022/10/14 01:55:10;;;;;;;;;;;;;;;8.48;88.29;100377.94;1714273;83;21776;-80
2022/10/14 01:57:37;;;;;;;;;;;;;;;8.43;88.54;100381.51;1714321;83;20212;-81
2022/10/14 02:00:05;;;;;;;;;;;;;;;8.38;88.95;100381.52;1714242;83;20221;-81
2022/10/14 02:02:35;;;;;;;;;;;;;;;8.35;89.12;100378.52;1712658;83;20532;-82
2022/10/14 02:05:10;;;;;;;;;;;;;;;8.34;89.12;100379.84;1688089;83;20271;-81
2022/10/14 02:07:43;;;;;;;;;;;;;;;8.32;89.01;100377.65;1713210;83;21093;-80
2022/10/14 02:10:19;;;;;;;;;;;;;;;8.32;89.10;100378.96;1714271;83;20858;-81
2022/10/14 02:13:15;;;;;;;;;;;;;;;8.30;88.86;100372.87;1715134;83;20235;-81
2022/10/14 02:15:51;;;;;;;;;;;;;;;8.27;88.72;100376.42;1714767;83;20248;-81
2022/10/14 02:18:27;;;;;;;;;;;;;;;8.24;88.87;100372.94;1714264;83;20581;-81
2022/10/14 02:20:56;;;;;;;;;;;;;;;8.21;89.02;100376.47;1713762;83;21209;-81
2022/10/14 02:23:28;;;;;;;;;;;;;;;8.20;88.84;100372.10;1714073;83;20217;-81
2022/10/14 02:25:55;;;;;;;;;;;;;;;8.17;88.63;100365.16;1714178;83;20550;-81
2022/10/14 02:28:24;;;;;;;;;;;;;;;8.14;88.30;100371.73;1714142;83;20122;-79
2022/10/14 02:30:54;;;;;;;;;;;;;;;8.08;87.96;100369.17;1714604;83;20153;-78
2022/10/14 02:33:21;;;;;;;;;;;;;;;8.06;87.56;100367.02;1714220;83;21140;-79
2022/10/14 02:35:48;;;;;;;;;;;;;;;8.03;87.15;100370.98;1687908;83;20192;-81
2022/10/14 02:38:14;;;;;;;;;;;;;;;7.99;86.95;100367.53;1714250;83;20216;-81
2022/10/14 02:40:43;;;;;;;;;;;;;;;7.96;86.90;100370.17;1714088;83;20366;-81
2022/10/14 02:43:10;;;;;;;;;;;;;;;7.91;86.35;100372.42;1714099;83;20208;-80
2022/10/14 02:45:37;;;;;;;;;;;;;;;7.85;86.09;100368.55;1714369;83;21134;-81
2022/10/14 02:48:05;;;;;;;;;;;;;;;7.81;85.95;100371.64;1714074;83;20181;-81
2022/10/14 02:50:32;;;;;;;;;;;;;;;7.77;86.24;100370.80;1714342;83;20205;-80
2022/10/14 02:52:58;;;;;;;;;;;;;;;7.73;86.08;100371.73;1714219;83;20331;-81
2022/10/14 02:55:24;;;;;;;;;;;;;;;7.69;86.24;100373.08;1714627;83;20149;-79
2022/10/14 02:57:51;;;;;;;;;;;;;;;7.66;86.49;100377.88;1714466;83;21824;-80
2022/10/14 03:00:18;;;;;;;;;;;;;;;7.62;86.82;100377.50;1714210;83;20608;-81
2022/10/14 03:02:44;;;;;;;;;;;;;;;7.60;86.71;100376.20;1714432;83;20212;-81
2022/10/14 03:05:12;;;;;;;;;;;;;;;7.56;86.76;100377.09;1714191;83;20217;-81
2022/10/14 03:07:39;;;;;;;;;;;;;;;7.53;86.77;100375.83;1687958;83;20211;-80
2022/10/14 03:10:08;;;;;;;;;;;;;;;7.50;87.02;100375.85;1714113;83;21422;-81
2022/10/14 03:12:36;;;;;;;;;;;;;;;7.50;87.08;100374.96;1714211;83;20185;-81
2022/10/14 03:15:04;;;;;;;;;;;;;;;7.50;87.05;100372.34;1714263;83;20181;-80
2022/10/14 03:17:32;;;;;;;;;;;;;;;7.47;86.76;100378.48;1714347;83;20217;-81
2022/10/14 03:20:03;;;;;;;;;;;;;;;7.40;86.68;100371.12;1714168;83;20236;-81
2022/10/14 03:22:30;;;;;;;;;;;;;;;7.38;86.85;100370.27;1714308;83;21078;-80
2022/10/14 03:24:56;;;;;;;;;;;;;;;7.38;86.97;100372.00;1714149;83;20212;-80
2022/10/14 03:27:37;;;;;;;;;;;;;;;7.37;87.02;100367.66;1712676;83;20227;-80
2022/10/14 03:30:06;;;;;;;;;;;;;;;7.34;87.11;100372.92;1714188;83;20498;-80
2022/10/14 03:32:35;;;;;;;;;;;;;;;7.32;87.30;100374.69;1714312;83;21045;-81
2022/10/14 03:35:03;;;;;;;;;;;;;;;7.29;87.33;100369.02;1706585;83;22236;-82
2022/10/14 03:37:31;;;;;;;;;;;;;;;7.28;87.40;100372.54;1714155;83;20257;-79
2022/10/14 03:39:57;;;;;;;;;;;;;;;7.27;87.66;100370.78;1714550;83;20509;-81
2022/10/14 03:42:24;;;;;;;;;;;;;;;7.28;87.93;100376.88;1714510;83;20169;-80
2022/10/14 03:44:51;;;;;;;;;;;;;;;7.27;88.13;100372.55;1714370;83;20252;-81
2022/10/14 03:47:19;;;;;;;;;;;;;;;7.25;88.39;100371.25;1714034;83;21752;-81
2022/10/14 03:49:46;;;;;;;;;;;;;;;7.24;88.61;100369.05;1714159;83;20447;-81
2022/10/14 03:52:14;;;;;;;;;;;;;;;7.27;88.87;100367.31;1713521;83;20205;-81
2022/10/14 03:54:41;;;;;;;;;;;;;;;7.25;89.11;100369.48;1714473;83;20181;-81
2022/10/14 03:57:09;;;;;;;;;;;;;;;7.26;89.36;100371.66;1709943;83;20180;-82
2022/10/14 03:59:39;;;;;;;;;;;;;;;7.26;89.27;100370.34;1708159;84;21898;-81
2022/10/14 04:02:05;;;;;;;;;;;;;;;7.26;89.11;100365.11;1708513;84;20969;-81
2022/10/14 04:04:32;;;;;;;;;;;;;;;7.24;89.53;100369.50;1708664;84;20217;-79
2022/10/14 04:06:59;;;;;;;;;;;;;;;7.22;89.98;100360.79;1708749;84;20240;-81
2022/10/14 04:09:26;;;;;;;;;;;;;;;7.21;90.12;100365.17;1708695;84;20224;-80
2022/10/14 04:11:54;;;;;;;;;;;;;;;7.21;90.03;100375.64;1708914;84;21085;-81
2022/10/14 04:14:34;;;;;;;;;;;;;;;7.21;89.96;100369.52;1706313;84;20214;-81
2022/10/14 04:17:01;;;;;;;;;;;;;;;7.19;89.90;100371.28;1708453;84;20220;-81
2022/10/14 04:19:28;;;;;;;;;;;;;;;7.18;89.73;100370.42;1708698;84;20676;-82
2022/10/14 04:21:54;;;;;;;;;;;;;;;7.18;89.87;100374.80;1708814;84;20224;-82
2022/10/14 04:24:21;;;;;;;;;;;;;;;7.19;89.84;100367.35;1708718;84;21198;-80
2022/10/14 04:26:51;;;;;;;;;;;;;;;7.19;89.52;100367.35;1708132;84;20212;-78
2022/10/14 04:29:19;;;;;;;;;;;;;;;7.17;89.47;100366.50;1707768;84;20523;-82
2022/10/14 04:31:47;;;;;;;;;;;;;;;7.16;89.64;100369.56;1707779;84;20377;-81
2022/10/14 04:34:14;;;;;;;;;;;;;;;7.18;90.03;100364.33;1709014;84;20166;-79
2022/10/14 04:36:40;;;;;;;;;;;;;;;7.18;90.15;100373.48;1708850;84;21116;-81
2022/10/14 04:39:09;;;;;;;;;;;;;;;7.18;90.32;100372.17;1706545;84;20197;-80
2022/10/14 04:41:36;;;;;;;;;;;;;;;7.17;90.52;100374.35;1708764;84;20170;-81
2022/10/14 04:44:04;;;;;;;;;;;;;;;7.17;91.09;100373.05;1708870;84;20150;-81
2022/10/14 04:46:36;;;;;;;;;;;;;;;7.18;91.24;100374.80;1707475;84;20157;-80
2022/10/14 04:49:02;;;;;;;;;;;;;;;7.16;91.39;100373.49;1708979;84;21117;-82
2022/10/14 04:51:30;;;;;;;;;;;;;;;7.16;91.75;100376.53;1708478;84;20659;-81
2022/10/14 04:54:04;;;;;;;;;;;;;;;7.19;91.93;100379.13;1706740;84;20225;-81
2022/10/14 04:56:34;;;;;;;;;;;;;;;7.18;91.88;100378.72;1710204;83;20208;-81
2022/10/14 04:59:02;;;;;;;;;;;;;;;7.21;91.88;100375.64;1714184;83;20208;-81
2022/10/14 05:01:42;;;;;;;;;;;;;;;7.22;91.86;100374.73;1712749;83;21172;-79
2022/10/14 05:04:09;;;;;;;;;;;;;;;7.26;91.97;100378.20;1714054;83;20223;-81
2022/10/14 05:06:37;;;;;;;;;;;;;;;7.28;91.98;100380.39;1687683;83;20196;-80
2022/10/14 05:09:04;;;;;;;;;;;;;;;7.29;92.00;100378.18;1714191;83;20232;-80
2022/10/14 05:11:31;;;;;;;;;;;;;;;7.34;91.99;100377.70;1714730;83;20184;-81
2022/10/14 05:13:59;;;;;;;;;;;;;;;7.38;92.16;100378.12;1714206;83;20205;-80
2022/10/14 05:16:28;;;;;;;;;;;;;;;7.41;92.31;100383.34;1714329;83;20216;-81
2022/10/14 05:18:56;;;;;;;;;;;;;;;7.40;92.69;100384.22;1687934;83;20204;-81
2022/10/14 05:21:24;;;;;;;;;;;;;;;7.39;93.15;100379.84;1714128;83;20522;-81
2022/10/14 05:23:56;;;;;;;;;;;;;;;7.39;93.55;100390.31;1713492;83;20170;-81
2022/10/14 05:26:22;;;;;;;;;;;;;;;7.37;94.01;100381.61;1688065;83;21182;-80
2022/10/14 05:28:51;;;;;;;;;;;;;;;7.38;94.59;100392.53;1687698;83;20193;-81
2022/10/14 05:31:18;;;;;;;;;;;;;;;7.43;94.84;100390.74;1714751;83;20475;-80
2022/10/14 05:33:47;;;;;;;;;;;;;;;7.50;94.95;100390.67;1713612;83;20204;-81
2022/10/14 05:36:14;;;;;;;;;;;;;;;7.57;95.07;100393.69;1713999;83;20208;-81
2022/10/14 05:38:40;;;;;;;;;;;;;;;7.64;95.45;100400.61;1714215;83;21512;-79
2022/10/14 05:41:08;;;;;;;;;;;;;;;7.71;95.71;100404.91;1714277;83;20173;-79
2022/10/14 05:43:35;;;;;;;;;;;;;;;7.77;95.80;100408.79;1714685;83;20157;-81
2022/10/14 05:46:03;;;;;;;;;;;;;;;7.85;95.88;100405.23;1714293;83;20193;-81
2022/10/14 05:48:31;;;;;;;;;;;;;;;7.89;96.00;100397.78;1714252;83;20633;-81
2022/10/14 05:51:01;;;;;;;;;;;;;;;7.95;95.87;100405.56;1714115;83;20666;-80
2022/10/14 05:53:27;;;;;;;;;;;;;;;8.03;95.78;100409.43;1714242;83;20142;-81
2022/10/14 05:56:04;;;;;;;;;;;;;;;8.08;95.90;100402.39;1687861;83;20165;-79
2022/10/14 05:58:31;;;;;;;;;;;;;;;8.14;96.24;100408.89;1714214;83;20670;-80
2022/10/14 06:01:01;;;;;;;;;;;;;;;8.18;96.35;100407.96;1714349;83;20550;-81
2022/10/14 06:03:28;;;;;;;;;;;;;;;8.22;96.33;100403.55;1713840;83;21168;-80
2022/10/14 06:05:54;;;;;;;;;;;;;;;8.28;96.48;100404.35;1714248;83;20236;-81
2022/10/14 06:08:21;;;;;;;;;;;;;;;8.33;96.52;100405.63;1714413;83;20215;-81
2022/10/14 06:10:48;;;;;;;;;;;;;;;8.36;96.52;100412.15;1714296;83;20196;-81
2022/10/14 06:13:14;;;;;;;;;;;;;;;8.42;96.46;100415.98;1714098;83;20150;-80
2022/10/14 06:15:41;;;;;;;;;;;;;;;8.48;96.36;100415.96;1714503;83;21103;-80
2022/10/14 06:18:08;;;;;;;;;;;;;;;8.53;96.46;100415.47;1714263;83;20723;-80
2022/10/14 06:20:34;;;;;;;;;;;;;;;8.57;96.46;100415.44;1714380;83;20208;-81
2022/10/14 06:23:01;;;;;;;;;;;;;;;8.59;96.52;100418.91;1714209;83;20771;-81
2022/10/14 06:25:28;;;;;;;;;;;;;;;8.64;96.75;100427.58;1714340;83;20487;-81
2022/10/14 06:27:54;;;;;;;;;;;;;;;8.70;96.83;100422.27;1714355;83;21288;-80
2022/10/14 06:30:21;;;;;;;;;;;;;;;8.77;97.01;100422.61;1714487;83;20174;-82
2022/10/14 06:32:48;;;;;;;;;;;;;;;8.82;97.00;100429.98;1714225;83;20203;-81
2022/10/14 06:35:14;;;;;;;;;;;;;;;8.86;96.83;100423.82;1715318;83;20170;-81
2022/10/14 06:37:44;;;;;;;;;;;;;;;8.90;96.64;100425.50;1714914;83;20233;-81
2022/10/14 06:40:10;;;;;;;;;;;;;;;8.97;96.58;100428.05;1714093;83;21884;-81
2022/10/14 06:42:37;;;;;;;;;;;;;;;9.01;96.59;100425.80;1714219;83;20212;-81
2022/10/14 06:45:05;;;;;;;;;;;;;;;9.05;96.58;100426.20;1714267;83;20256;-81
2022/10/14 06:47:32;;;;;;;;;;;;;;;9.10;96.72;100428.31;1714082;83;20155;-81
2022/10/14 06:49:58;;;;;;;;;;;;;;;9.17;96.68;100424.70;1713957;83;20200;-80
2022/10/14 06:52:25;;;;;;;;;;;;;;;9.24;96.76;100422.86;1714538;83;21197;-80
2022/10/14 06:54:51;;;;;;;;;;;;;;;9.30;96.65;100424.09;1714217;83;20229;-81
2022/10/14 06:57:17;;;;;;;;;;;;;;;9.37;96.35;100423.55;1714110;83;20211;-82
2022/10/14 06:59:44;;;;;;;;;;;;;;;9.44;95.87;100427.36;1714138;83;20422;-81
2022/10/14 07:02:11;;;;;;;;;;;;;;;9.48;95.60;100425.12;1714229;83;20491;-81
2022/10/14 07:04:38;;;;;;;;;;;;;;;9.51;95.59;100425.50;1714307;83;21246;-81
2022/10/14 07:07:06;;;;;;;;;;;;;;;9.57;95.56;100425.42;1714209;83;20215;-81
2022/10/14 07:09:33;;;;;;;;;;;;;;;9.62;95.28;100423.59;1714140;83;20502;-80
2022/10/14 07:12:00;;;;;;;;;;;;;;;9.66;94.68;100423.94;1714312;83;20192;-81
2022/10/14 07:14:27;;;;;;;;;;;;;;;9.70;94.16;100425.21;1714516;83;20164;-79
2022/10/14 07:16:55;;;;;;;;;;;;;;;9.74;93.74;100421.66;1715020;83;20173;-81
2022/10/14 07:19:22;;;;;;;;;;;;;;;9.77;93.28;100418.98;1715057;83;20174;-80
2022/10/14 07:21:50;;;;;;;;;;;;;;;9.81;92.88;100416.25;1714387;83;20169;-81
2022/10/14 07:24:16;;;;;;;;;;;;;;;9.86;92.51;100415.72;1714400;83;20200;-83
2022/10/14 07:26:42;;;;;;;;;;;;;;;9.91;92.16;100415.66;1714160;83;20146;-80
2022/10/14 07:29:09;;;;;;;;;;;;;;;9.95;91.70;100412.52;1714507;83;22224;-82
2022/10/14 07:31:35;;;;;;;;;;;;;;;10.01;91.53;100415.05;1714465;83;20516;-81
2022/10/14 07:34:01;;;;;;;;;;;;;;;10.06;91.20;100412.34;1714237;83;20232;-79
2022/10/14 07:36:28;;;;;;;;;;;;;;;10.10;90.65;100413.55;1714286;83;20262;-80
2022/10/14 07:38:54;;;;;;;;;;;;;;;10.15;89.83;100414.80;1714194;83;20161;-79
2022/10/14 07:41:22;;;;;;;;;;;;;;;10.17;89.21;100413.88;1714487;83;21201;-81
2022/10/14 07:43:52;;;;;;;;;;;;;;;10.22;88.81;100413.77;1714227;83;20203;-80
2022/10/14 07:46:28;;;;;;;;;;;;;;;10.29;88.43;100419.36;1714179;83;20224;-81
2022/10/14 07:48:49;;;;;;;;;;;;;;;10.35;88.00;100417.94;1713185;83;20229;-82
2022/10/14 07:51:15;;;;;;;;;;;;;;;10.40;87.58;100413.45;1714352;83;20149;-81
2022/10/14 07:53:41;;;;;;;;;;;;;;;10.47;87.31;100413.34;1714350;83;21746;-80
2022/10/14 07:56:07;;;;;;;;;;;;;;;10.55;87.00;100419.33;1714337;83;20529;-82
2022/10/14 07:58:34;;;;;;;;;;;;;;;10.62;86.60;100411.72;1716705;83;20204;-81
2022/10/14 08:01:00;;;;;;;;;;;;;;;10.69;86.43;100409.83;1717108;83;20228;-81
2022/10/14 08:03:27;;;;;;;;;;;;;;;10.76;86.04;100416.27;1717143;83;20146;-83
2022/10/14 08:06:00;;;;;;;;;;;;;;;10.81;85.71;100410.02;1717124;83;21160;-80
2022/10/14 08:08:30;;;;;;;;;;;;;;;10.88;85.33;100411.64;1717297;83;20213;-80
2022/10/14 08:11:11;;;;;;;;;;;;;;;10.96;84.73;100409.25;1717319;83;20935;-81
2022/10/14 08:13:38;;;;;;;;;;;;;;;11.05;84.37;100406.00;1717501;83;20148;-81
2022/10/14 08:16:16;;;;;;;;;;;;;;;11.13;84.07;100406.24;1717388;83;20201;-81
2022/10/14 08:18:42;;;;;;;;;;;;;;;11.20;83.37;100402.16;1717726;83;21133;-82
2022/10/14 08:21:09;;;;;;;;;;;;;;;11.28;83.18;100405.45;1717407;83;20173;-82
2022/10/14 08:23:36;;;;;;;;;;;;;;;11.35;82.64;100404.44;1717433;83;20168;-80
2022/10/14 08:26:04;;;;;;;;;;;;;;;11.43;82.22;100399.85;1717289;83;21075;-79
2022/10/14 08:28:31;;;;;;;;;;;;;;;11.51;81.94;100405.77;1692520;83;20499;-81
2022/10/14 08:30:57;;;;;;;;;;;;;;;11.56;80.85;100407.45;1717666;83;21076;-80
2022/10/14 08:33:23;;;;;;;;;;;;;;;11.61;80.57;100404.25;1717375;83;20435;-81
2022/10/14 08:35:49;;;;;;;;;;;;;;;11.65;79.96;100403.25;1717445;83;20203;-80
2022/10/14 08:38:23;;;;;;;;;;;;;;;11.69;79.82;100400.97;1717175;83;20184;-82
2022/10/14 08:41:14;;;;;;;;;;;;;;;11.76;79.64;100403.00;1716707;83;20223;-82
2022/10/14 08:43:50;;;;;;;;;;;;;;;11.82;79.57;100402.39;1717383;83;21164;-82
2022/10/14 08:46:29;;;;;;;;;;;;;;;11.93;78.96;100401.28;1717529;83;20137;-80
2022/10/14 08:49:02;;;;;;;;;;;;;;;11.98;78.30;100402.03;1717251;83;20222;-81
2022/10/14 08:51:29;;;;;;;;;;;;;;;12.03;76.96;100398.81;1698626;83;20617;-79
2022/10/14 08:53:58;;;;;;;;;;;;;;;12.08;76.87;100396.92;1717215;83;20192;-81
2022/10/14 08:56:24;;;;;;;;;;;;;;;12.14;76.44;100399.41;1717496;83;21146;-81
2022/10/14 08:58:53;;;;;;;;;;;;;;;12.22;75.99;100392.58;1710180;83;20238;-81
2022/10/14 09:01:26;;;;;;;;;;;;;;;12.31;75.42;100403.36;1708424;84;20349;-79
2022/10/14 09:03:55;;;;;;;;;;;;;;;12.36;74.92;100390.91;1708614;83;20399;-80
2022/10/14 09:06:25;;;;;;;;;;;;;;;12.44;74.42;100399.48;1708565;84;20161;-83
2022/10/14 09:08:53;;;;;;;;;;;;;;;12.51;74.10;100390.90;1708504;84;21123;-83
2022/10/14 09:11:20;;;;;;;;;;;;;;;12.62;73.92;100396.31;1709167;84;20503;-83
2022/10/14 09:13:54;;;;;;;;;;;;;;;12.71;73.37;100394.28;1708764;84;20217;-82
2022/10/14 09:16:24;;;;;;;;;;;;;;;12.79;72.99;100390.97;1708242;84;20242;-83
2022/10/14 09:18:59;;;;;;;;;;;;;;;12.89;72.96;100395.06;1708520;84;20269;-83
2022/10/14 09:21:36;;;;;;;;;;;;;;;12.98;72.35;100394.80;1708954;84;21260;-82
2022/10/14 09:24:20;;;;;;;;;;;;;;;13.06;71.54;100389.72;1708623;84;20177;-81
2022/10/14 09:26:50;;;;;;;;;;;;;;;13.16;71.04;100386.77;1708998;84;20451;-82
2022/10/14 09:29:29;;;;;;;;;;;;;;;13.30;70.57;100398.22;1708636;84;20157;-83
2022/10/14 09:32:01;;;;;;;;;;;;;;;13.41;70.19;100397.89;1708926;84;20452;-81
2022/10/14 09:34:32;;;;;;;;;;;;;;;13.50;69.50;100388.79;1708362;84;20335;-83
2022/10/14 09:37:30;;;;;;;;;;;;;;;13.61;68.62;100391.09;1708503;84;20510;-82
2022/10/14 09:40:09;;;;;;;;;;;;;;;13.71;68.06;100388.08;1680674;84;20215;-83
2022/10/14 09:42:42;;;;;;;;;;;;;;;13.84;67.74;100387.69;1709044;84;20130;-81
2022/10/14 09:45:11;;;;;;;;;;;;;;;13.93;67.32;100385.56;1700404;84;20189;-82
2022/10/14 09:47:50;;;;;;;;;;;;;;;13.99;67.25;100378.36;1708409;84;20710;-82
2022/10/14 09:50:26;;;;;;;;;;;;;;;14.04;66.36;100381.24;1708468;84;20142;-82
2022/10/14 09:52:56;;;;;;;;;;;;;;;14.08;66.30;100380.20;1708437;84;20380;-82
2022/10/14 09:55:23;;;;;;;;;;;;;;;14.12;66.18;100377.88;1708246;84;20493;-82
2022/10/14 09:58:07;;;;;;;;;;;;;;;14.17;65.62;100379.48;1710176;83;20189;-83
2022/10/14 10:00:36;;;;;;;;;;;;;;;14.20;65.13;100379.37;1714051;83;20220;-82
2022/10/14 10:03:03;;;;;;;;;;;;;;;14.23;64.43;100376.62;1714009;83;20158;-82
2022/10/14 10:05:32;;;;;;;;;;;;;;;14.25;63.63;100372.98;1714051;83;20169;-82
2022/10/14 10:08:09;;;;;;;;;;;;;;;14.24;63.43;100375.24;1714220;83;20181;-82
2022/10/14 10:10:37;;;;;;;;;;;;;;;14.22;63.14;100374.88;1714219;83;20141;-82
2022/10/14 10:13:04;;;;;;;;;;;;;;;14.17;62.81;100374.19;1714185;83;21155;-82
2022/10/14 10:15:31;;;;;;;;;;;;;;;14.12;62.17;100373.91;1664090;83;20188;-81
2022/10/14 10:17:57;;;;;;;;;;;;;;;14.08;62.66;100379.34;1714236;83;20204;-82
2022/10/14 10:20:34;;;;;;;;;;;;;;;14.05;62.61;100371.52;1714202;83;20145;-82
2022/10/14 10:23:25;;;;;;;;;;;;;;;14.02;62.94;100371.18;1714280;83;20208;-82
2022/10/14 10:25:52;;;;;;;;;;;;;;;13.99;62.83;100369.95;1714230;83;21215;-81
2022/10/14 10:28:30;;;;;;;;;;;;;;;13.94;62.42;100370.11;1714238;83;20169;-82
2022/10/14 10:31:24;;;;;;;;;;;;;;;13.91;62.05;100368.03;1714188;83;20220;-83
2022/10/14 10:34:00;;;;;;;;;;;;;;;13.85;61.84;100366.91;1714255;83;20180;-82
2022/10/14 10:36:39;;;;;;;;;;;;;;;13.89;62.02;100359.30;1714094;83;20561;-81
2022/10/14 10:39:25;;;;;;;;;;;;;;;14.02;62.07;100363.67;1714194;83;21140;-83
2022/10/14 10:42:11;;;;;;;;;;;;;;;14.16;60.97;100367.18;1713823;83;20274;-81
2022/10/14 10:44:57;;;;;;;;;;;;;;;14.21;60.39;100358.61;1714321;83;20247;-82
2022/10/14 10:47:47;;;;;;;;;;;;;;;14.22;59.76;100360.33;1714112;83;20570;-81
2022/10/14 10:50:38;;;;;;;;;;;;;;;14.22;58.95;100361.64;1714292;83;20181;-83
2022/10/14 10:53:08;;;;;;;;;;;;;;;14.15;59.18;100365.44;1714115;83;21091;-81
2022/10/14 10:55:39;;;;;;;;;;;;;;;14.11;59.28;100362.90;1713799;83;20224;-81
2022/10/14 10:58:26;;;;;;;;;;;;;;;14.11;58.97;100361.58;1715697;83;20141;-81
2022/10/14 11:00:56;;;;;;;;;;;;;;;14.08;58.95;100355.06;1718956;83;20212;-82
2022/10/14 11:03:43;;;;;;;;;;;;;;;14.07;59.30;100356.44;1717611;83;20205;-82
2022/10/14 11:12:01;;;;;;;;;;;;;;;14.01;59.23;100354.88;1717633;83;21092;-83
2022/10/14 11:14:56;;;;;;;;;;;;;;;13.91;60.24;100349.52;1697067;83;20195;-81
2022/10/14 11:17:40;;;;;;;;;;;;;;;13.90;60.15;100347.78;1697429;84;20143;-82
2022/10/14 11:20:10;;;;;;;;;;;;;;;13.88;60.26;100348.30;1697111;84;21080;-83
2022/10/14 11:22:53;;;;;;;;;;;;;;;13.86;59.85;100346.17;1697205;84;20210;-84
2022/10/14 11:25:48;;;;;;;;;;;;;;;13.85;60.22;100339.14;1697353;84;20206;-80
2022/10/14 11:28:27;;;;;;;;;;;;;;;13.85;59.93;100340.02;1697220;84;20359;-84
2022/10/14 11:31:03;;;;;;;;;;;;;;;13.84;59.68;100340.93;1697092;84;20463;-81
2022/10/14 11:33:46;;;;;;;;;;;;;;;13.78;59.10;100344.25;1697096;84;21559;-81
2022/10/14 11:36:30;;;;;;;;;;;;;;;13.71;59.67;100342.27;1697047;84;20498;-80
2022/10/14 11:39:05;;;;;;;;;;;;;;;13.66;59.64;100339.77;1682007;84;20198;-82
2022/10/14 11:41:44;;;;;;;;;;;;;;;13.60;59.83;100340.00;1698421;84;20201;-82
2022/10/14 11:44:15;;;;;;;;;;;;;;;13.57;60.04;100337.46;1698241;84;20182;-82
2022/10/14 11:46:44;;;;;;;;;;;;;;;13.56;60.37;100333.08;1697187;83;21098;-82
2022/10/14 11:49:24;;;;;;;;;;;;;;;13.57;60.06;100333.49;1697313;83;20252;-82
2022/10/14 11:51:54;;;;;;;;;;;;;;;13.61;59.89;100331.14;1689041;84;20205;-81
2022/10/14 11:54:28;;;;;;;;;;;;;;;13.66;59.56;100326.55;1697318;83;20210;-83
2022/10/14 11:57:18;;;;;;;;;;;;;;;13.73;59.65;100331.17;1697535;84;20222;-82
2022/10/14 12:00:05;;;;;;;;;;;;;;;13.76;59.12;100327.11;1697238;84;21548;-80
2022/10/14 12:03:13;;;;;;;;;;;;;;;13.79;59.12;100334.09;1697366;84;20195;-82
2022/10/14 12:05:43;;;;;;;;;;;;;;;13.84;59.05;100334.78;1696889;84;20233;-82
2022/10/14 12:08:16;;;;;;;;;;;;;;;13.90;58.50;100330.58;1697210;84;20215;-82
2022/10/14 12:10:47;;;;;;;;;;;;;;;13.94;58.50;100332.22;1697336;84;20197;-83
2022/10/14 12:13:15;;;;;;;;;;;;;;;13.96;57.83;100325.08;1696184;83;21189;-82
2022/10/14 12:15:45;;;;;;;;;;;;;;;13.99;57.28;100323.66;1695720;84;20457;-82
2022/10/14 12:18:13;;;;;;;;;;;;;;;14.02;56.95;100323.55;1695773;84;20139;-82
2022/10/14 12:21:04;;;;;;;;;;;;;;;14.07;57.11;100313.66;1695958;84;20217;-83
2022/10/14 12:23:33;;;;;;;;;;;;;;;14.15;56.25;100316.48;1695349;84;20214;-81
2022/10/14 12:26:03;;;;;;;;;;;;;;;14.20;55.89;100308.77;1695858;84;21118;-81
2022/10/14 12:28:33;;;;;;;;;;;;;;;14.28;55.80;100315.11;1695567;84;20198;-81
2022/10/14 12:31:09;;;;;;;;;;;;;;;14.38;55.49;100309.88;1695980;84;20143;-81
2022/10/14 12:33:38;;;;;;;;;;;;;;;14.46;54.25;100302.51;1688697;84;20163;-81
2022/10/14 12:36:06;;;;;;;;;;;;;;;14.62;54.14;100303.27;1696141;83;20135;-81
2022/10/14 12:38:35;;;;;;;;;;;;;;;14.80;53.96;100305.67;1683751;84;20154;-82
2022/10/14 12:41:33;;;;;;;;;;;;;;;14.99;53.19;100302.66;1695944;84;20191;-80
2022/10/14 12:44:01;;;;;;;;;;;;;;;15.13;52.37;100300.80;1696175;84;20651;-81
2022/10/14 12:46:27;;;;;;;;;;;;;;;15.26;51.84;100297.64;1695640;84;20458;-83
2022/10/14 12:48:54;;;;;;;;;;;;;;;15.34;51.38;100300.84;1695739;84;20602;-82
2022/10/14 12:51:22;;;;;;;;;;;;;;;15.45;51.04;100297.28;1695577;84;21819;-84
2022/10/14 12:54:05;;;;;;;;;;;;;;;15.52;50.78;100299.20;1695651;84;20206;-82
2022/10/14 12:56:37;;;;;;;;;;;;;;;15.58;50.40;100298.92;1695504;83;20198;-81
2022/10/14 12:59:06;;;;;;;;;;;;;;;15.60;49.70;100300.59;1695718;84;20143;-84
2022/10/14 13:01:35;;;;;;;;;;;;;;;15.61;50.03;100294.34;1695476;84;20222;-82
2022/10/14 13:04:05;;;;;;;;;;;;;;;15.63;49.58;100297.41;1696146;84;21155;-82
2022/10/14 13:06:37;;;;;;;;;;;;;;;15.72;49.78;100290.39;1694577;83;20178;-83
2022/10/14 13:09:16;;;;;;;;;;;;;;;15.81;49.12;100291.34;1696267;84;20226;-83